sensor_id;sensor_type;location;lat;lon;timestamp;P1;durP1;ratioP1;P2;durP2;ratioP2
76552;SDS011;65395;53.168;18.156;2022-11-21T00:00:41;100.10;;;32.20;;
76552;SDS011;65395;53.168;18.156;2022-11-21T00:03:09;65.80;;;24.80;;
76552;SDS011;65395;53.168;18.156;2022-11-21T00:05:38;46.90;;;18.10;;
76552;SDS011;65395;53.168;18.156;2022-11-21T00:08:07;42.30;;;17.60;;
76552;SDS011;65395;53.168;18.156;2022-11-21T00:10:35;40.10;;;16.90;;
76552;SDS011;65395;53.168;18.156;2022-11-21T00:13:03;42.20;;;16.80;;
76552;SDS011;65395;53.168;18.156;2022-11-21T00:15:31;41.10;;;16.40;;
76552;SDS011;65395;53.168;18.156;2022-11-21T00:18:00;42.70;;;16.80;;
76552;SDS011;65395;53.168;18.156;2022-11-21T00:20:28;39.70;;;17.00;;
76552;SDS011;65395;53.168;18.156;2022-11-21T00:22:55;38.10;;;16.10;;
76552;SDS011;65395;53.168;18.156;2022-11-21T00:25:22;39.70;;;16.10;;
76552;SDS011;65395;53.168;18.156;2022-11-21T00:27:49;44.10;;;17.60;;
76552;SDS011;65395;53.168;18.156;2022-11-21T00:30:18;37.70;;;15.50;;
76552;SDS011;65395;53.168;18.156;2022-11-21T00:32:44;39.30;;;16.20;;
76552;SDS011;65395;53.168;18.156;2022-11-21T00:35:11;94.10;;;29.50;;
76552;SDS011;65395;53.168;18.156;2022-11-21T00:37:38;76.10;;;26.60;;
76552;SDS011;65395;53.168;18.156;2022-11-21T00:40:05;58.00;;;20.90;;
76552;SDS011;65395;53.168;18.156;2022-11-21T00:42:32;36.60;;;15.00;;
76552;SDS011;65395;53.168;18.156;2022-11-21T00:44:59;37.20;;;14.80;;
76552;SDS011;65395;53.168;18.156;2022-11-21T00:47:26;37.10;;;15.20;;
76552;SDS011;65395;53.168;18.156;2022-11-21T00:49:53;31.70;;;13.60;;
76552;SDS011;65395;53.168;18.156;2022-11-21T00:52:19;37.10;;;14.10;;
76552;SDS011;65395;53.168;18.156;2022-11-21T00:54:46;37.60;;;15.20;;
76552;SDS011;65395;53.168;18.156;2022-11-21T00:57:12;37.40;;;15.10;;
76552;SDS011;65395;53.168;18.156;2022-11-21T00:59:39;42.20;;;15.40;;
76552;SDS011;65395;53.168;18.156;2022-11-21T01:02:06;35.50;;;13.80;;
76552;SDS011;65395;53.168;18.156;2022-11-21T01:04:33;33.90;;;14.30;;
76552;SDS011;65395;53.168;18.156;2022-11-21T01:07:00;33.50;;;13.60;;
76552;SDS011;65395;53.168;18.156;2022-11-21T01:09:27;32.70;;;13.20;;
76552;SDS011;65395;53.168;18.156;2022-11-21T01:11:54;35.80;;;13.40;;
76552;SDS011;65395;53.168;18.156;2022-11-21T01:14:22;35.10;;;13.10;;
76552;SDS011;65395;53.168;18.156;2022-11-21T01:16:49;37.40;;;13.80;;
76552;SDS011;65395;53.168;18.156;2022-11-21T01:19:15;45.60;;;17.00;;
76552;SDS011;65395;53.168;18.156;2022-11-21T01:21:42;99.50;;;26.90;;
76552;SDS011;65395;53.168;18.156;2022-11-21T01:24:09;98.90;;;27.20;;
76552;SDS011;65395;53.168;18.156;2022-11-21T01:26:37;72.30;;;25.60;;
76552;SDS011;65395;53.168;18.156;2022-11-21T01:29:05;31.30;;;13.20;;
76552;SDS011;65395;53.168;18.156;2022-11-21T01:31:32;35.20;;;12.50;;
76552;SDS011;65395;53.168;18.156;2022-11-21T01:33:59;31.90;;;11.80;;
76552;SDS011;65395;53.168;18.156;2022-11-21T01:36:28;32.70;;;11.80;;
76552;SDS011;65395;53.168;18.156;2022-11-21T01:38:58;34.20;;;11.50;;
76552;SDS011;65395;53.168;18.156;2022-11-21T01:41:28;31.20;;;11.50;;
76552;SDS011;65395;53.168;18.156;2022-11-21T01:43:59;31.50;;;12.70;;
76552;SDS011;65395;53.168;18.156;2022-11-21T01:46:27;34.00;;;12.70;;
76552;SDS011;65395;53.168;18.156;2022-11-21T01:48:55;28.50;;;10.80;;
76552;SDS011;65395;53.168;18.156;2022-11-21T01:56:57;35.80;;;12.70;;
76552;SDS011;65395;53.168;18.156;2022-11-21T01:59:32;35.60;;;12.90;;
76552;SDS011;65395;53.168;18.156;2022-11-21T02:02:09;32.50;;;11.70;;
76552;SDS011;65395;53.168;18.156;2022-11-21T02:04:38;38.60;;;13.20;;
76552;SDS011;65395;53.168;18.156;2022-11-21T02:07:08;61.50;;;19.10;;
76552;SDS011;65395;53.168;18.156;2022-11-21T02:09:38;114.30;;;29.90;;
76552;SDS011;65395;53.168;18.156;2022-11-21T02:12:10;142.10;;;35.70;;
76552;SDS011;65395;53.168;18.156;2022-11-21T02:14:41;157.10;;;40.30;;
76552;SDS011;65395;53.168;18.156;2022-11-21T02:17:10;151.90;;;42.10;;
76552;SDS011;65395;53.168;18.156;2022-11-21T02:19:42;95.20;;;32.50;;
76552;SDS011;65395;53.168;18.156;2022-11-21T02:22:36;49.70;;;17.60;;
76552;SDS011;65395;53.168;18.156;2022-11-21T02:25:13;35.40;;;14.10;;
76552;SDS011;65395;53.168;18.156;2022-11-21T02:27:44;46.20;;;15.50;;
76552;SDS011;65395;53.168;18.156;2022-11-21T02:30:12;47.30;;;15.10;;
76552;SDS011;65395;53.168;18.156;2022-11-21T02:32:40;46.70;;;15.90;;
76552;SDS011;65395;53.168;18.156;2022-11-21T02:35:13;44.00;;;16.40;;
76552;SDS011;65395;53.168;18.156;2022-11-21T02:37:42;46.90;;;16.30;;
76552;SDS011;65395;53.168;18.156;2022-11-21T02:40:14;39.70;;;14.30;;
76552;SDS011;65395;53.168;18.156;2022-11-21T02:45:34;41.10;;;14.10;;
76552;SDS011;65395;53.168;18.156;2022-11-21T02:48:04;39.70;;;15.00;;
76552;SDS011;65395;53.168;18.156;2022-11-21T02:50:32;65.40;;;20.50;;
76552;SDS011;65395;53.168;18.156;2022-11-21T02:53:01;122.20;;;32.40;;
76552;SDS011;65395;53.168;18.156;2022-11-21T02:55:29;135.60;;;37.90;;
76552;SDS011;65395;53.168;18.156;2022-11-21T02:57:57;139.30;;;39.50;;
76552;SDS011;65395;53.168;18.156;2022-11-21T03:00:23;47.60;;;17.00;;
76552;SDS011;65395;53.168;18.156;2022-11-21T03:02:50;38.40;;;13.90;;
76552;SDS011;65395;53.168;18.156;2022-11-21T03:05:18;41.00;;;13.80;;
76552;SDS011;65395;53.168;18.156;2022-11-21T03:07:46;40.40;;;14.80;;
76552;SDS011;65395;53.168;18.156;2022-11-21T03:10:14;41.20;;;15.20;;
76552;SDS011;65395;53.168;18.156;2022-11-21T03:12:41;39.30;;;15.00;;
76552;SDS011;65395;53.168;18.156;2022-11-21T03:15:10;42.00;;;15.60;;
76552;SDS011;65395;53.168;18.156;2022-11-21T03:17:38;38.90;;;12.70;;
76552;SDS011;65395;53.168;18.156;2022-11-21T03:20:05;39.30;;;13.90;;
76552;SDS011;65395;53.168;18.156;2022-11-21T03:22:33;35.40;;;12.50;;
76552;SDS011;65395;53.168;18.156;2022-11-21T03:25:00;39.80;;;13.50;;
76552;SDS011;65395;53.168;18.156;2022-11-21T03:27:27;40.70;;;14.40;;
76552;SDS011;65395;53.168;18.156;2022-11-21T03:29:54;45.60;;;14.70;;
76552;SDS011;65395;53.168;18.156;2022-11-21T03:32:20;37.60;;;14.20;;
76552;SDS011;65395;53.168;18.156;2022-11-21T03:34:47;44.40;;;15.10;;
76552;SDS011;65395;53.168;18.156;2022-11-21T03:37:13;43.80;;;15.90;;
76552;SDS011;65395;53.168;18.156;2022-11-21T03:39:40;42.40;;;14.40;;
76552;SDS011;65395;53.168;18.156;2022-11-21T03:42:07;41.40;;;13.70;;
76552;SDS011;65395;53.168;18.156;2022-11-21T03:44:33;53.60;;;18.10;;
76552;SDS011;65395;53.168;18.156;2022-11-21T03:47:00;117.60;;;31.30;;
76552;SDS011;65395;53.168;18.156;2022-11-21T03:49:26;154.20;;;41.00;;
76552;SDS011;65395;53.168;18.156;2022-11-21T03:51:53;142.70;;;40.90;;
76552;SDS011;65395;53.168;18.156;2022-11-21T03:54:19;123.20;;;38.80;;
76552;SDS011;65395;53.168;18.156;2022-11-21T03:56:46;63.60;;;23.90;;
76552;SDS011;65395;53.168;18.156;2022-11-21T03:59:13;50.80;;;17.40;;
76552;SDS011;65395;53.168;18.156;2022-11-21T04:01:39;33.50;;;12.30;;
76552;SDS011;65395;53.168;18.156;2022-11-21T04:04:06;40.60;;;14.10;;
76552;SDS011;65395;53.168;18.156;2022-11-21T04:06:33;36.50;;;12.40;;
76552;SDS011;65395;53.168;18.156;2022-11-21T04:08:59;33.80;;;11.30;;
76552;SDS011;65395;53.168;18.156;2022-11-21T04:11:26;37.10;;;13.20;;
76552;SDS011;65395;53.168;18.156;2022-11-21T04:13:53;34.50;;;12.20;;
76552;SDS011;65395;53.168;18.156;2022-11-21T04:16:20;34.90;;;13.30;;
76552;SDS011;65395;53.168;18.156;2022-11-21T04:18:46;37.00;;;12.20;;
76552;SDS011;65395;53.168;18.156;2022-11-21T04:21:13;38.70;;;13.50;;
76552;SDS011;65395;53.168;18.156;2022-11-21T04:23:40;41.10;;;13.30;;
76552;SDS011;65395;53.168;18.156;2022-11-21T04:26:06;38.20;;;12.30;;
76552;SDS011;65395;53.168;18.156;2022-11-21T04:28:33;34.90;;;13.00;;
76552;SDS011;65395;53.168;18.156;2022-11-21T04:31:01;47.00;;;14.60;;
76552;SDS011;65395;53.168;18.156;2022-11-21T04:33:29;34.30;;;13.40;;
76552;SDS011;65395;53.168;18.156;2022-11-21T04:35:55;38.90;;;12.50;;
76552;SDS011;65395;53.168;18.156;2022-11-21T04:38:22;33.20;;;11.60;;
76552;SDS011;65395;53.168;18.156;2022-11-21T04:40:49;41.40;;;13.20;;
76552;SDS011;65395;53.168;18.156;2022-11-21T04:43:15;93.10;;;25.00;;
76552;SDS011;65395;53.168;18.156;2022-11-21T04:45:42;140.90;;;35.30;;
76552;SDS011;65395;53.168;18.156;2022-11-21T04:48:10;132.30;;;36.40;;
76552;SDS011;65395;53.168;18.156;2022-11-21T04:50:37;95.10;;;30.10;;
76552;SDS011;65395;53.168;18.156;2022-11-21T04:53:03;73.50;;;24.40;;
76552;SDS011;65395;53.168;18.156;2022-11-21T04:55:30;50.60;;;17.50;;
76552;SDS011;65395;53.168;18.156;2022-11-21T04:57:58;44.90;;;14.40;;
76552;SDS011;65395;53.168;18.156;2022-11-21T05:00:24;43.50;;;14.80;;
76552;SDS011;65395;53.168;18.156;2022-11-21T05:02:51;35.50;;;13.20;;
76552;SDS011;65395;53.168;18.156;2022-11-21T05:05:18;37.00;;;12.90;;
76552;SDS011;65395;53.168;18.156;2022-11-21T05:07:44;37.10;;;13.30;;
76552;SDS011;65395;53.168;18.156;2022-11-21T05:10:11;36.80;;;13.40;;
76552;SDS011;65395;53.168;18.156;2022-11-21T05:12:38;44.50;;;14.40;;
76552;SDS011;65395;53.168;18.156;2022-11-21T05:15:15;39.90;;;13.80;;
76552;SDS011;65395;53.168;18.156;2022-11-21T05:17:42;39.40;;;14.00;;
76552;SDS011;65395;53.168;18.156;2022-11-21T05:20:09;39.20;;;13.50;;
76552;SDS011;65395;53.168;18.156;2022-11-21T05:22:36;43.10;;;15.10;;
76552;SDS011;65395;53.168;18.156;2022-11-21T05:25:03;39.40;;;14.70;;
76552;SDS011;65395;53.168;18.156;2022-11-21T05:27:30;45.70;;;14.70;;
76552;SDS011;65395;53.168;18.156;2022-11-21T05:29:57;46.50;;;17.00;;
76552;SDS011;65395;53.168;18.156;2022-11-21T05:32:24;45.00;;;15.00;;
76552;SDS011;65395;53.168;18.156;2022-11-21T05:34:51;39.20;;;14.70;;
76552;SDS011;65395;53.168;18.156;2022-11-21T05:37:17;40.70;;;14.80;;
76552;SDS011;65395;53.168;18.156;2022-11-21T05:39:44;45.30;;;15.00;;
76552;SDS011;65395;53.168;18.156;2022-11-21T05:42:11;44.30;;;15.30;;
76552;SDS011;65395;53.168;18.156;2022-11-21T05:44:37;58.60;;;18.50;;
76552;SDS011;65395;53.168;18.156;2022-11-21T05:47:04;120.40;;;31.50;;
76552;SDS011;65395;53.168;18.156;2022-11-21T05:49:30;158.70;;;42.10;;
76552;SDS011;65395;53.168;18.156;2022-11-21T05:51:57;171.30;;;47.30;;
76552;SDS011;65395;53.168;18.156;2022-11-21T05:54:24;153.60;;;48.70;;
76552;SDS011;65395;53.168;18.156;2022-11-21T05:56:50;86.20;;;29.80;;
76552;SDS011;65395;53.168;18.156;2022-11-21T05:59:17;55.90;;;20.00;;
76552;SDS011;65395;53.168;18.156;2022-11-21T06:01:43;55.90;;;19.90;;
76552;SDS011;65395;53.168;18.156;2022-11-21T06:04:20;50.50;;;17.60;;
76552;SDS011;65395;53.168;18.156;2022-11-21T06:06:47;51.30;;;19.00;;
76552;SDS011;65395;53.168;18.156;2022-11-21T06:09:14;52.60;;;19.90;;
76552;SDS011;65395;53.168;18.156;2022-11-21T06:11:40;58.80;;;20.50;;
76552;SDS011;65395;53.168;18.156;2022-11-21T06:14:07;63.10;;;22.20;;
76552;SDS011;65395;53.168;18.156;2022-11-21T06:16:34;57.10;;;20.60;;
76552;SDS011;65395;53.168;18.156;2022-11-21T06:19:00;53.50;;;20.90;;
76552;SDS011;65395;53.168;18.156;2022-11-21T06:21:28;56.60;;;19.80;;
76552;SDS011;65395;53.168;18.156;2022-11-21T06:23:55;57.30;;;21.90;;
76552;SDS011;65395;53.168;18.156;2022-11-21T06:26:24;55.40;;;20.60;;
76552;SDS011;65395;53.168;18.156;2022-11-21T06:28:52;52.50;;;20.90;;
76552;SDS011;65395;53.168;18.156;2022-11-21T06:31:21;77.60;;;25.50;;
76552;SDS011;65395;53.168;18.156;2022-11-21T06:33:51;176.80;;;45.20;;
76552;SDS011;65395;53.168;18.156;2022-11-21T06:36:19;183.80;;;50.90;;
76552;SDS011;65395;53.168;18.156;2022-11-21T06:38:47;149.90;;;47.40;;
76552;SDS011;65395;53.168;18.156;2022-11-21T06:41:14;55.70;;;21.80;;
76552;SDS011;65395;53.168;18.156;2022-11-21T06:43:43;55.30;;;20.60;;
76552;SDS011;65395;53.168;18.156;2022-11-21T06:46:10;60.80;;;22.30;;
76552;SDS011;65395;53.168;18.156;2022-11-21T06:48:37;56.30;;;21.50;;
76552;SDS011;65395;53.168;18.156;2022-11-21T06:51:05;57.30;;;22.20;;
76552;SDS011;65395;53.168;18.156;2022-11-21T06:53:34;55.70;;;21.10;;
76552;SDS011;65395;53.168;18.156;2022-11-21T06:56:01;52.60;;;21.00;;
76552;SDS011;65395;53.168;18.156;2022-11-21T06:58:28;50.50;;;19.00;;
76552;SDS011;65395;53.168;18.156;2022-11-21T07:00:55;53.30;;;19.50;;
76552;SDS011;65395;53.168;18.156;2022-11-21T07:03:23;55.60;;;20.00;;
76552;SDS011;65395;53.168;18.156;2022-11-21T07:05:50;51.20;;;19.80;;
76552;SDS011;65395;53.168;18.156;2022-11-21T07:08:17;51.70;;;20.90;;
76552;SDS011;65395;53.168;18.156;2022-11-21T07:10:44;51.90;;;19.60;;
76552;SDS011;65395;53.168;18.156;2022-11-21T07:13:11;60.00;;;21.40;;
76552;SDS011;65395;53.168;18.156;2022-11-21T07:15:49;150.20;;;43.40;;
76552;SDS011;65395;53.168;18.156;2022-11-21T07:18:19;131.20;;;42.30;;
76552;SDS011;65395;53.168;18.156;2022-11-21T07:20:47;86.50;;;29.70;;
76552;SDS011;65395;53.168;18.156;2022-11-21T07:23:14;54.10;;;21.60;;
76552;SDS011;65395;53.168;18.156;2022-11-21T07:25:42;57.80;;;21.40;;
76552;SDS011;65395;53.168;18.156;2022-11-21T07:28:09;64.80;;;22.00;;
76552;SDS011;65395;53.168;18.156;2022-11-21T07:30:36;54.00;;;20.50;;
76552;SDS011;65395;53.168;18.156;2022-11-21T07:33:04;55.90;;;21.00;;
76552;SDS011;65395;53.168;18.156;2022-11-21T07:35:32;51.10;;;21.10;;
76552;SDS011;65395;53.168;18.156;2022-11-21T07:38:00;54.70;;;21.40;;
76552;SDS011;65395;53.168;18.156;2022-11-21T07:40:28;49.60;;;20.90;;
76552;SDS011;65395;53.168;18.156;2022-11-21T07:42:59;53.90;;;22.20;;
76552;SDS011;65395;53.168;18.156;2022-11-21T07:45:28;52.20;;;20.90;;
76552;SDS011;65395;53.168;18.156;2022-11-21T07:47:57;55.90;;;22.10;;
76552;SDS011;65395;53.168;18.156;2022-11-21T07:50:25;53.40;;;22.10;;
76552;SDS011;65395;53.168;18.156;2022-11-21T07:53:00;49.80;;;20.90;;
76552;SDS011;65395;53.168;18.156;2022-11-21T07:55:29;52.50;;;20.20;;
76552;SDS011;65395;53.168;18.156;2022-11-21T07:57:58;58.40;;;22.40;;
76552;SDS011;65395;53.168;18.156;2022-11-21T08:00:27;53.60;;;21.80;;
76552;SDS011;65395;53.168;18.156;2022-11-21T08:02:55;59.70;;;23.40;;
76552;SDS011;65395;53.168;18.156;2022-11-21T08:05:22;102.50;;;36.30;;
76552;SDS011;65395;53.168;18.156;2022-11-21T08:07:49;85.70;;;31.00;;
76552;SDS011;65395;53.168;18.156;2022-11-21T08:10:16;58.90;;;23.90;;
76552;SDS011;65395;53.168;18.156;2022-11-21T08:12:44;52.70;;;22.20;;
76552;SDS011;65395;53.168;18.156;2022-11-21T08:15:11;60.10;;;22.50;;
76552;SDS011;65395;53.168;18.156;2022-11-21T08:17:38;52.30;;;20.30;;
76552;SDS011;65395;53.168;18.156;2022-11-21T08:20:06;52.00;;;21.90;;
76552;SDS011;65395;53.168;18.156;2022-11-21T08:22:36;50.30;;;21.30;;
76552;SDS011;65395;53.168;18.156;2022-11-21T08:25:05;47.70;;;19.90;;
76552;SDS011;65395;53.168;18.156;2022-11-21T08:27:32;52.30;;;20.60;;
76552;SDS011;65395;53.168;18.156;2022-11-21T08:29:59;50.80;;;21.00;;
76552;SDS011;65395;53.168;18.156;2022-11-21T08:32:26;52.30;;;21.20;;
76552;SDS011;65395;53.168;18.156;2022-11-21T08:34:52;57.40;;;22.50;;
76552;SDS011;65395;53.168;18.156;2022-11-21T08:37:19;55.00;;;22.00;;
76552;SDS011;65395;53.168;18.156;2022-11-21T08:39:46;55.90;;;21.60;;
76552;SDS011;65395;53.168;18.156;2022-11-21T08:42:12;56.00;;;21.70;;
76552;SDS011;65395;53.168;18.156;2022-11-21T08:44:39;49.20;;;20.60;;
76552;SDS011;65395;53.168;18.156;2022-11-21T08:47:06;50.10;;;20.90;;
76552;SDS011;65395;53.168;18.156;2022-11-21T08:49:32;51.70;;;20.20;;
76552;SDS011;65395;53.168;18.156;2022-11-21T08:52:00;55.40;;;21.70;;
76552;SDS011;65395;53.168;18.156;2022-11-21T08:54:27;62.90;;;26.10;;
76552;SDS011;65395;53.168;18.156;2022-11-21T08:56:53;64.80;;;24.90;;
76552;SDS011;65395;53.168;18.156;2022-11-21T08:59:20;48.90;;;21.90;;
76552;SDS011;65395;53.168;18.156;2022-11-21T09:01:47;56.90;;;23.20;;
76552;SDS011;65395;53.168;18.156;2022-11-21T09:04:14;54.90;;;22.70;;
76552;SDS011;65395;53.168;18.156;2022-11-21T09:06:40;54.90;;;22.50;;
76552;SDS011;65395;53.168;18.156;2022-11-21T09:09:07;52.80;;;21.30;;
76552;SDS011;65395;53.168;18.156;2022-11-21T09:11:34;55.20;;;22.90;;
76552;SDS011;65395;53.168;18.156;2022-11-21T09:14:02;52.70;;;23.90;;
76552;SDS011;65395;53.168;18.156;2022-11-21T09:16:39;49.80;;;23.30;;
76552;SDS011;65395;53.168;18.156;2022-11-21T09:19:15;53.00;;;22.20;;
76552;SDS011;65395;53.168;18.156;2022-11-21T09:21:42;54.70;;;24.00;;
76552;SDS011;65395;53.168;18.156;2022-11-21T09:24:11;55.60;;;24.10;;
76552;SDS011;65395;53.168;18.156;2022-11-21T09:26:40;51.00;;;21.20;;
76552;SDS011;65395;53.168;18.156;2022-11-21T09:29:07;54.10;;;21.90;;
76552;SDS011;65395;53.168;18.156;2022-11-21T09:31:36;64.40;;;27.90;;
76552;SDS011;65395;53.168;18.156;2022-11-21T09:34:03;60.50;;;26.90;;
76552;SDS011;65395;53.168;18.156;2022-11-21T09:36:30;60.20;;;25.00;;
76552;SDS011;65395;53.168;18.156;2022-11-21T09:38:57;58.40;;;23.70;;
76552;SDS011;65395;53.168;18.156;2022-11-21T09:44:24;64.10;;;26.40;;
76552;SDS011;65395;53.168;18.156;2022-11-21T09:47:10;73.80;;;30.10;;
76552;SDS011;65395;53.168;18.156;2022-11-21T09:49:52;58.50;;;25.10;;
76552;SDS011;65395;53.168;18.156;2022-11-21T09:52:31;61.50;;;25.70;;
76552;SDS011;65395;53.168;18.156;2022-11-21T09:55:13;58.80;;;25.60;;
76552;SDS011;65395;53.168;18.156;2022-11-21T09:57:46;57.20;;;25.30;;
76552;SDS011;65395;53.168;18.156;2022-11-21T10:00:18;58.00;;;24.70;;
76552;SDS011;65395;53.168;18.156;2022-11-21T10:02:48;60.40;;;23.90;;
76552;SDS011;65395;53.168;18.156;2022-11-21T10:05:16;64.10;;;24.60;;
76552;SDS011;65395;53.168;18.156;2022-11-21T10:07:51;56.30;;;24.20;;
76552;SDS011;65395;53.168;18.156;2022-11-21T10:13:21;54.20;;;23.00;;
76552;SDS011;65395;53.168;18.156;2022-11-21T10:16:08;54.00;;;23.90;;
76552;SDS011;65395;53.168;18.156;2022-11-21T10:18:56;57.90;;;24.20;;
76552;SDS011;65395;53.168;18.156;2022-11-21T10:24:45;58.20;;;24.60;;
76552;SDS011;65395;53.168;18.156;2022-11-21T10:27:31;61.50;;;26.10;;
76552;SDS011;65395;53.168;18.156;2022-11-21T10:30:05;61.10;;;25.80;;
76552;SDS011;65395;53.168;18.156;2022-11-21T10:32:40;56.60;;;23.60;;
76552;SDS011;65395;53.168;18.156;2022-11-21T10:35:14;57.50;;;24.50;;
76552;SDS011;65395;53.168;18.156;2022-11-21T10:37:47;60.10;;;26.00;;
76552;SDS011;65395;53.168;18.156;2022-11-21T10:40:22;67.60;;;28.20;;
76552;SDS011;65395;53.168;18.156;2022-11-21T10:43:07;61.70;;;28.60;;
76552;SDS011;65395;53.168;18.156;2022-11-21T10:45:59;61.10;;;26.50;;
76552;SDS011;65395;53.168;18.156;2022-11-21T10:48:25;58.00;;;24.70;;
76552;SDS011;65395;53.168;18.156;2022-11-21T10:53:39;65.00;;;28.40;;
76552;SDS011;65395;53.168;18.156;2022-11-21T10:56:16;61.10;;;29.00;;
76552;SDS011;65395;53.168;18.156;2022-11-21T10:58:47;62.90;;;29.90;;
76552;SDS011;65395;53.168;18.156;2022-11-21T11:04:06;70.50;;;31.70;;
76552;SDS011;65395;53.168;18.156;2022-11-21T11:06:43;69.50;;;33.70;;
76552;SDS011;65395;53.168;18.156;2022-11-21T11:11:50;74.90;;;38.80;;
76552;SDS011;65395;53.168;18.156;2022-11-21T11:14:25;57.20;;;27.40;;
76552;SDS011;65395;53.168;18.156;2022-11-21T11:16:55;63.10;;;29.80;;
76552;SDS011;65395;53.168;18.156;2022-11-21T11:19:25;73.60;;;35.00;;
76552;SDS011;65395;53.168;18.156;2022-11-21T11:21:54;59.70;;;28.20;;
76552;SDS011;65395;53.168;18.156;2022-11-21T11:24:22;68.60;;;32.10;;
76552;SDS011;65395;53.168;18.156;2022-11-21T11:26:55;67.40;;;28.80;;
76552;SDS011;65395;53.168;18.156;2022-11-21T11:29:26;53.40;;;24.70;;
76552;SDS011;65395;53.168;18.156;2022-11-21T11:34:46;64.30;;;27.90;;
76552;SDS011;65395;53.168;18.156;2022-11-21T11:37:31;61.00;;;26.80;;
76552;SDS011;65395;53.168;18.156;2022-11-21T11:42:52;69.60;;;28.30;;
76552;SDS011;65395;53.168;18.156;2022-11-21T11:45:50;65.30;;;27.60;;
76552;SDS011;65395;53.168;18.156;2022-11-21T11:48:38;65.50;;;27.30;;
76552;SDS011;65395;53.168;18.156;2022-11-21T11:51:13;67.30;;;27.80;;
76552;SDS011;65395;53.168;18.156;2022-11-21T11:53:48;62.30;;;26.00;;
76552;SDS011;65395;53.168;18.156;2022-11-21T11:56:21;65.60;;;29.60;;
76552;SDS011;65395;53.168;18.156;2022-11-21T11:58:56;70.50;;;32.50;;
76552;SDS011;65395;53.168;18.156;2022-11-21T12:01:33;65.00;;;27.80;;
76552;SDS011;65395;53.168;18.156;2022-11-21T12:06:54;72.40;;;28.90;;
76552;SDS011;65395;53.168;18.156;2022-11-21T12:12:32;73.50;;;31.30;;
76552;SDS011;65395;53.168;18.156;2022-11-21T12:17:57;76.80;;;32.20;;
76552;SDS011;65395;53.168;18.156;2022-11-21T12:23:44;68.20;;;29.60;;
76552;SDS011;65395;53.168;18.156;2022-11-21T12:26:34;73.80;;;29.90;;
76552;SDS011;65395;53.168;18.156;2022-11-21T12:29:16;66.70;;;28.70;;
76552;SDS011;65395;53.168;18.156;2022-11-21T12:40:45;73.00;;;30.70;;
76552;SDS011;65395;53.168;18.156;2022-11-21T12:43:32;71.30;;;31.40;;
76552;SDS011;65395;53.168;18.156;2022-11-21T12:46:12;72.80;;;30.00;;
76552;SDS011;65395;53.168;18.156;2022-11-21T12:51:50;76.90;;;31.30;;
76552;SDS011;65395;53.168;18.156;2022-11-21T13:00:47;66.70;;;28.70;;
76552;SDS011;65395;53.168;18.156;2022-11-21T13:03:36;66.30;;;27.90;;
76552;SDS011;65395;53.168;18.156;2022-11-21T13:06:11;64.70;;;27.10;;
76552;SDS011;65395;53.168;18.156;2022-11-21T13:08:41;64.80;;;26.30;;
76552;SDS011;65395;53.168;18.156;2022-11-21T13:11:15;64.00;;;26.90;;
76552;SDS011;65395;53.168;18.156;2022-11-21T13:14:10;57.60;;;23.80;;
76552;SDS011;65395;53.168;18.156;2022-11-21T13:16:53;66.00;;;27.00;;
76552;SDS011;65395;53.168;18.156;2022-11-21T13:30:56;66.50;;;26.80;;
76552;SDS011;65395;53.168;18.156;2022-11-21T13:44:41;65.40;;;28.80;;
76552;SDS011;65395;53.168;18.156;2022-11-21T13:47:11;66.50;;;28.70;;
76552;SDS011;65395;53.168;18.156;2022-11-21T13:50:08;80.90;;;33.90;;
76552;SDS011;65395;53.168;18.156;2022-11-21T13:52:50;82.50;;;33.60;;
76552;SDS011;65395;53.168;18.156;2022-11-21T13:55:41;80.80;;;32.10;;
76552;SDS011;65395;53.168;18.156;2022-11-21T14:01:08;82.10;;;31.00;;
76552;SDS011;65395;53.168;18.156;2022-11-21T14:03:57;73.00;;;30.80;;
76552;SDS011;65395;53.168;18.156;2022-11-21T14:06:46;76.80;;;31.90;;
76552;SDS011;65395;53.168;18.156;2022-11-21T14:09:16;76.70;;;30.10;;
76552;SDS011;65395;53.168;18.156;2022-11-21T14:14:32;78.30;;;32.00;;
76552;SDS011;65395;53.168;18.156;2022-11-21T14:19:47;74.70;;;31.10;;
76552;SDS011;65395;53.168;18.156;2022-11-21T14:22:15;89.30;;;33.50;;
76552;SDS011;65395;53.168;18.156;2022-11-21T14:24:51;139.80;;;50.40;;
76552;SDS011;65395;53.168;18.156;2022-11-21T14:27:23;105.20;;;41.30;;
76552;SDS011;65395;53.168;18.156;2022-11-21T14:29:54;93.70;;;38.40;;
76552;SDS011;65395;53.168;18.156;2022-11-21T14:32:25;76.50;;;33.20;;
76552;SDS011;65395;53.168;18.156;2022-11-21T14:37:40;77.00;;;31.80;;
76552;SDS011;65395;53.168;18.156;2022-11-21T14:40:10;80.20;;;34.50;;
76552;SDS011;65395;53.168;18.156;2022-11-21T14:42:38;71.70;;;30.70;;
76552;SDS011;65395;53.168;18.156;2022-11-21T14:45:07;69.50;;;31.10;;
76552;SDS011;65395;53.168;18.156;2022-11-21T14:47:49;74.70;;;31.40;;
76552;SDS011;65395;53.168;18.156;2022-11-21T14:50:22;80.20;;;34.40;;
76552;SDS011;65395;53.168;18.156;2022-11-21T14:52:54;72.10;;;31.70;;
76552;SDS011;65395;53.168;18.156;2022-11-21T14:55:25;80.90;;;33.10;;
76552;SDS011;65395;53.168;18.156;2022-11-21T14:57:55;84.50;;;34.80;;
76552;SDS011;65395;53.168;18.156;2022-11-21T15:00:24;135.10;;;49.30;;
76552;SDS011;65395;53.168;18.156;2022-11-21T15:02:54;100.50;;;40.80;;
76552;SDS011;65395;53.168;18.156;2022-11-21T15:05:30;77.50;;;33.50;;
76552;SDS011;65395;53.168;18.156;2022-11-21T15:07:59;81.20;;;34.40;;
76552;SDS011;65395;53.168;18.156;2022-11-21T15:10:29;83.20;;;36.10;;
76552;SDS011;65395;53.168;18.156;2022-11-21T15:13:02;93.90;;;38.20;;
76552;SDS011;65395;53.168;18.156;2022-11-21T15:18:14;103.90;;;38.70;;
76552;SDS011;65395;53.168;18.156;2022-11-21T15:20:50;94.10;;;36.10;;
76552;SDS011;65395;53.168;18.156;2022-11-21T15:26:01;97.10;;;37.10;;
76552;SDS011;65395;53.168;18.156;2022-11-21T15:28:29;98.60;;;36.10;;
76552;SDS011;65395;53.168;18.156;2022-11-21T15:36:21;136.60;;;46.10;;
76552;SDS011;65395;53.168;18.156;2022-11-21T15:38:49;83.30;;;33.90;;
76552;SDS011;65395;53.168;18.156;2022-11-21T15:41:23;87.90;;;35.60;;
76552;SDS011;65395;53.168;18.156;2022-11-21T15:43:53;92.80;;;38.30;;
76552;SDS011;65395;53.168;18.156;2022-11-21T15:46:23;90.20;;;38.60;;
76552;SDS011;65395;53.168;18.156;2022-11-21T15:48:53;92.80;;;35.00;;
76552;SDS011;65395;53.168;18.156;2022-11-21T15:51:25;86.50;;;36.60;;
76552;SDS011;65395;53.168;18.156;2022-11-21T15:54:00;90.80;;;35.80;;
76552;SDS011;65395;53.168;18.156;2022-11-21T15:56:27;80.30;;;32.80;;
76552;SDS011;65395;53.168;18.156;2022-11-21T15:58:54;88.60;;;34.20;;
76552;SDS011;65395;53.168;18.156;2022-11-21T16:01:22;140.00;;;49.60;;
76552;SDS011;65395;53.168;18.156;2022-11-21T16:03:51;101.20;;;40.60;;
76552;SDS011;65395;53.168;18.156;2022-11-21T16:06:19;77.60;;;33.20;;
76552;SDS011;65395;53.168;18.156;2022-11-21T16:08:46;88.70;;;34.00;;
76552;SDS011;65395;53.168;18.156;2022-11-21T16:11:22;77.70;;;33.00;;